createdAt,value
2018-03-28T00:00:36.927Z,38.13
2018-03-28T00:03:05.882Z,42.05
2018-03-28T00:05:33.420Z,36.58
2018-03-28T00:08:00.951Z,38.27
2018-03-28T00:10:28.512Z,39.55
2018-03-28T00:12:56.804Z,37.70
2018-03-28T00:15:24.349Z,36.40
2018-03-28T00:17:51.915Z,42.77
2018-03-28T00:20:20.235Z,44.80
2018-03-28T00:22:49.791Z,37.87
2018-03-28T00:25:18.608Z,37.23
2018-03-28T00:27:46.145Z,37.27
2018-03-28T00:30:24.721Z,36.83
2018-03-28T00:34:50.700Z,41.50
2018-03-28T00:37:18.270Z,43.90
2018-03-28T00:39:45.803Z,45.73
2018-03-28T00:42:25.943Z,39.67
2018-03-28T00:44:53.448Z,45.83
2018-03-28T00:47:21.019Z,53.00
2018-03-28T00:49:48.591Z,42.63
2018-03-28T00:52:16.497Z,40.10
2018-03-28T00:54:44.052Z,43.23
2018-03-28T00:57:11.628Z,37.40
2018-03-28T00:59:39.172Z,37.03
2018-03-28T01:02:06.711Z,37.67
2018-03-28T01:04:34.771Z,38.00
2018-03-28T01:07:02.308Z,37.33
2018-03-28T01:09:29.843Z,39.97
2018-03-28T01:11:57.405Z,37.33
2018-03-28T01:14:25.179Z,44.05
2018-03-28T01:16:52.716Z,44.60
2018-03-28T01:19:21.041Z,41.53
2018-03-28T01:21:48.575Z,40.30
2018-03-28T01:24:16.510Z,39.42
2018-03-28T01:26:44.408Z,33.67
2018-03-28T01:29:11.966Z,38.47
2018-03-28T01:31:39.509Z,38.75
2018-03-28T01:34:07.090Z,39.50
2018-03-28T01:36:34.623Z,38.63
2018-03-28T01:39:02.167Z,42.83
2018-03-28T01:41:29.736Z,35.90
2018-03-28T01:43:57.274Z,37.23
2018-03-28T01:46:24.821Z,35.03
2018-03-28T01:48:52.728Z,33.90
2018-03-28T01:51:20.259Z,33.45
2018-03-28T01:53:47.795Z,32.07
2018-03-28T01:56:16.292Z,29.53
2018-03-28T01:58:43.837Z,31.27
2018-03-28T02:01:11.376Z,34.60
2018-03-28T02:03:38.943Z,34.53
2018-03-28T02:06:06.483Z,30.77
2018-03-28T02:08:34.898Z,31.57
2018-03-28T02:11:02.793Z,41.50
2018-03-28T02:13:30.331Z,32.38
2018-03-28T02:15:58.025Z,30.77
2018-03-28T02:18:25.607Z,33.40
2018-03-28T02:20:53.908Z,30.87
2018-03-28T02:23:21.449Z,30.93
2018-03-28T02:25:49.024Z,27.00
2018-03-28T02:28:16.564Z,26.90
2018-03-28T02:30:44.105Z,28.00
2018-03-28T02:33:11.984Z,26.37
2018-03-28T02:35:39.519Z,27.58
2018-03-28T02:38:07.051Z,35.03
2018-03-28T02:40:34.618Z,24.75
2018-03-28T02:43:02.156Z,28.60
2018-03-28T02:45:29.696Z,26.80
2018-03-28T02:47:57.255Z,25.43
2018-03-28T02:50:25.568Z,30.13
2018-03-28T02:52:53.123Z,27.87
2018-03-28T02:55:21.135Z,32.10
2018-03-28T02:57:48.676Z,27.00
2018-03-28T03:00:16.563Z,31.62
2018-03-28T03:02:44.136Z,28.77
2018-03-28T03:05:11.676Z,31.00
2018-03-28T03:07:39.242Z,27.23
2018-03-28T03:10:06.803Z,29.40
2018-03-28T03:12:34.338Z,31.30
2018-03-28T03:15:01.874Z,33.73
2018-03-28T03:17:30.648Z,27.87
2018-03-28T03:19:58.200Z,26.33
2018-03-28T03:22:26.503Z,36.13
2018-03-28T03:24:54.087Z,36.40
2018-03-28T03:27:21.611Z,30.17
2018-03-28T03:29:49.144Z,29.27
2018-03-28T03:32:17.467Z,30.70
2018-03-28T03:34:44.996Z,33.00
2018-03-28T03:37:12.535Z,29.52
2018-03-28T03:39:40.176Z,32.33
2018-03-28T03:42:07.723Z,31.73
2018-03-28T03:44:35.256Z,27.60
2018-03-28T03:47:02.813Z,29.60
2018-03-28T03:49:30.440Z,28.80
2018-03-28T03:51:58.751Z,27.90
2018-03-28T03:54:26.316Z,32.87
2018-03-28T03:56:53.851Z,30.37
2018-03-28T03:59:21.395Z,31.70
2018-03-28T04:01:49.640Z,29.90
2018-03-28T04:04:17.184Z,33.97
2018-03-28T04:06:44.719Z,30.80
2018-03-28T04:09:12.294Z,27.27
2018-03-28T04:11:39.840Z,28.10
2018-03-28T04:14:07.383Z,24.57
2018-03-28T04:16:35.711Z,25.43
2018-03-28T04:19:03.969Z,24.83
2018-03-28T04:21:31.512Z,22.00
2018-03-28T04:23:59.414Z,22.33
2018-03-28T04:26:26.954Z,23.50
2018-03-28T04:28:54.500Z,25.35
2018-03-28T04:31:22.071Z,17.83
2018-03-28T04:33:49.607Z,18.20
2018-03-28T04:36:17.903Z,15.87
2018-03-28T04:38:45.476Z,24.90
2018-03-28T04:41:15.392Z,18.37
2018-03-28T04:43:42.964Z,13.47
2018-03-28T04:46:11.451Z,13.20
2018-03-28T04:48:38.992Z,13.23
2018-03-28T04:51:06.532Z,16.62
2018-03-28T04:53:34.099Z,10.67
2018-03-28T04:56:01.632Z,13.80
2018-03-28T04:58:29.943Z,11.53
2018-03-28T05:00:57.499Z,9.67
2018-03-28T05:03:25.028Z,11.47
2018-03-28T05:05:52.795Z,12.68
2018-03-28T05:08:20.681Z,12.77
2018-03-28T05:10:48.220Z,11.00
2018-03-28T05:13:16.468Z,10.95
2018-03-28T05:15:44.035Z,16.33
2018-03-28T05:18:11.580Z,11.00
2018-03-28T05:20:39.119Z,15.23
2018-03-28T05:23:06.679Z,13.57
2018-03-28T05:25:34.992Z,8.07
2018-03-28T05:28:02.526Z,13.10
2018-03-28T05:30:30.156Z,8.20
2018-03-28T05:32:57.696Z,7.37
2018-03-28T05:35:25.230Z,8.37
2018-03-28T05:37:52.800Z,9.40
2018-03-28T05:40:20.327Z,7.97
2018-03-28T05:42:47.889Z,6.97
2018-03-28T05:45:16.520Z,5.97
2018-03-28T05:47:44.068Z,8.30
2018-03-28T05:50:11.599Z,7.63
2018-03-28T05:52:39.191Z,4.70
2018-03-28T05:55:06.724Z,5.63
2018-03-28T05:57:34.256Z,4.50
2018-03-28T06:00:01.853Z,4.03
2018-03-28T06:02:29.412Z,11.63
2018-03-28T06:04:56.946Z,4.33
2018-03-28T06:07:24.531Z,3.83
2018-03-28T06:09:52.064Z,3.97
2018-03-28T06:12:19.648Z,3.90
2018-03-28T06:14:47.248Z,3.53
2018-03-28T06:17:16.426Z,4.27
2018-03-28T06:19:43.964Z,7.47
2018-03-28T06:22:11.709Z,4.00
2018-03-28T06:24:39.260Z,4.20
2018-03-28T06:27:06.793Z,4.50
2018-03-28T06:29:34.356Z,4.93
2018-03-28T06:32:01.901Z,5.20
2018-03-28T06:34:30.205Z,5.50
2018-03-28T06:36:58.420Z,7.73
2018-03-28T06:39:25.970Z,5.83
2018-03-28T06:41:53.504Z,5.68
2018-03-28T06:44:21.077Z,5.20
2018-03-28T06:46:48.611Z,6.30
2018-03-28T06:49:16.420Z,6.30
2018-03-28T06:51:43.997Z,8.40
2018-03-28T06:54:12.195Z,7.10
2018-03-28T06:56:40.780Z,8.23
2018-03-28T06:59:09.530Z,5.90
2018-03-28T07:01:37.063Z,5.90
2018-03-28T07:04:04.588Z,6.93
2018-03-28T07:06:32.918Z,7.53
2018-03-28T07:09:01.220Z,8.80
2018-03-28T07:11:28.763Z,8.27
2018-03-28T07:13:56.342Z,11.40
2018-03-28T07:16:23.875Z,8.80
2018-03-28T07:18:51.427Z,9.73
2018-03-28T07:21:19.405Z,10.00
2018-03-28T07:23:47.356Z,13.10
2018-03-28T07:26:16.480Z,10.43
2018-03-28T07:28:44.040Z,11.30
2018-03-28T07:31:11.581Z,8.95
2018-03-28T07:33:39.116Z,11.73
2018-03-28T07:36:07.115Z,16.30
2018-03-28T07:38:35.600Z,10.03
2018-03-28T07:41:03.149Z,11.97
2018-03-28T07:43:31.216Z,16.12
2018-03-28T07:45:58.760Z,13.00
2018-03-28T07:48:26.297Z,7.77
2018-03-28T07:50:53.885Z,8.97
2018-03-28T07:53:21.484Z,9.93
2018-03-28T07:55:49.028Z,16.37
2018-03-28T07:58:16.589Z,19.08
2018-03-28T08:00:44.123Z,10.37
2018-03-28T08:03:11.664Z,8.03
2018-03-28T08:05:40.096Z,7.70
2018-03-28T08:08:07.698Z,7.87
2018-03-28T08:10:35.211Z,6.60
2018-03-28T08:13:02.778Z,7.40
2018-03-28T08:15:32.654Z,6.82
2018-03-28T08:18:00.985Z,6.50
2018-03-28T08:20:28.576Z,7.25
2018-03-28T08:22:56.155Z,8.20
2018-03-28T08:25:23.820Z,8.40
2018-03-28T08:27:51.823Z,6.70
2018-03-28T08:30:19.372Z,9.67
2018-03-28T08:32:48.075Z,7.43
2018-03-28T08:35:17.247Z,7.73
2018-03-28T08:37:44.915Z,6.53
2018-03-28T08:40:12.485Z,9.63
2018-03-28T08:42:40.055Z,8.03
2018-03-28T08:45:09.978Z,6.17
2018-03-28T08:47:37.757Z,5.45
2018-03-28T08:50:06.213Z,6.20
2018-03-28T08:52:33.826Z,6.13
2018-03-28T08:55:01.393Z,7.90
2018-03-28T08:57:28.969Z,6.40
2018-03-28T08:59:56.516Z,6.72
2018-03-28T09:02:24.168Z,6.40
2018-03-28T09:04:51.744Z,7.20
2018-03-28T09:07:19.281Z,6.13
2018-03-28T09:09:46.912Z,6.50
2018-03-28T09:12:27.177Z,5.85
2018-03-28T09:19:44.350Z,7.27
2018-03-28T09:22:12.636Z,5.20
2018-03-28T09:24:40.973Z,4.73
2018-03-28T09:27:11.427Z,6.17
2018-03-28T09:29:39.742Z,6.33
2018-03-28T09:32:07.652Z,4.37
2018-03-28T09:34:35.263Z,6.37
2018-03-28T09:37:02.866Z,5.90
2018-03-28T09:39:30.437Z,6.73
2018-03-28T09:41:58.036Z,5.37
2018-03-28T09:44:26.180Z,5.10
2018-03-28T09:46:53.780Z,4.70
2018-03-28T09:49:21.348Z,3.97
2018-03-28T09:51:49.798Z,7.03
2018-03-28T09:54:17.380Z,5.63
2018-03-28T09:56:45.560Z,5.20
2018-03-28T09:59:29.489Z,3.08
2018-03-28T10:05:28.656Z,3.70
2018-03-28T10:07:57.472Z,4.33
2018-03-28T10:10:25.064Z,3.22
2018-03-28T10:12:53.487Z,5.30
2018-03-28T10:15:21.033Z,4.87
2018-03-28T10:17:48.580Z,3.93
2018-03-28T10:20:16.525Z,4.87
2018-03-28T10:22:44.065Z,4.47
2018-03-28T10:25:12.363Z,5.37
2018-03-28T10:27:40.355Z,4.83
2018-03-28T10:30:07.910Z,6.20
2018-03-28T10:32:35.548Z,3.47
2018-03-28T10:35:05.588Z,10.23
2018-03-28T10:37:33.137Z,4.82
2018-03-28T10:40:00.725Z,3.93
2018-03-28T10:42:28.295Z,4.83
2018-03-28T10:44:55.902Z,4.23
2018-03-28T10:47:23.666Z,6.10
2018-03-28T10:49:51.253Z,6.70
2018-03-28T10:52:18.788Z,7.45
2018-03-28T10:54:47.165Z,5.03
2018-03-28T10:57:16.624Z,5.80
2018-03-28T10:59:44.241Z,5.83
2018-03-28T11:02:11.792Z,5.57
2018-03-28T11:04:40.992Z,5.00
2018-03-28T11:07:09.393Z,5.72
2018-03-28T11:09:37.026Z,5.33
2018-03-28T11:12:05.380Z,4.57
2018-03-28T11:14:32.928Z,9.40
2018-03-28T11:17:00.525Z,6.05
2018-03-28T11:19:28.754Z,6.63
2018-03-28T11:21:56.638Z,5.37
2018-03-28T11:24:27.909Z,3.93
2018-03-28T11:26:56.284Z,4.78
2018-03-28T11:29:27.413Z,4.80
2018-03-28T11:31:55.751Z,4.47
2018-03-28T11:34:23.378Z,3.77
2018-03-28T11:36:51.237Z,4.17
2018-03-28T11:39:18.778Z,5.00
2018-03-28T11:41:47.905Z,3.13
2018-03-28T11:44:15.618Z,7.80
2018-03-28T11:46:43.155Z,3.20
2018-03-28T11:49:10.724Z,3.73
2018-03-28T11:51:39.028Z,6.90
2018-03-28T11:54:06.565Z,3.17
2018-03-28T11:56:34.152Z,3.20
2018-03-28T11:59:01.928Z,3.03
2018-03-28T12:01:29.473Z,4.00
2018-03-28T12:03:57.639Z,4.87
2018-03-28T12:06:25.178Z,3.13
2018-03-28T12:08:52.707Z,4.83
2018-03-28T12:11:21.026Z,3.50
2018-03-28T12:13:48.565Z,3.63
2018-03-28T12:16:16.708Z,3.03
2018-03-28T12:18:45.600Z,7.10
2018-03-28T12:21:25.703Z,6.07
2018-03-28T12:26:23.934Z,3.53
2018-03-28T12:28:51.467Z,4.23
2018-03-28T12:31:20.512Z,3.80
2018-03-28T12:33:48.562Z,4.17
2018-03-28T12:36:17.284Z,4.20
2018-03-28T12:38:44.835Z,4.10
2018-03-28T12:41:12.404Z,4.47
2018-03-28T12:43:40.024Z,4.37
2018-03-28T12:46:07.630Z,4.03
2018-03-28T12:48:38.603Z,4.17
2018-03-28T12:51:06.181Z,6.33
2018-03-28T12:53:33.714Z,3.90
2018-03-28T12:56:01.292Z,3.57
2018-03-28T12:58:28.833Z,3.30
2018-03-28T13:00:56.368Z,3.50
2018-03-28T13:03:24.645Z,3.43
2018-03-28T13:05:55.308Z,3.07
2018-03-28T13:08:22.928Z,3.24
2018-03-28T13:10:53.830Z,3.05
2018-03-28T13:13:22.363Z,6.70
2018-03-28T13:15:49.906Z,2.37
2018-03-28T13:18:18.280Z,2.70
2018-03-28T13:20:45.816Z,2.70
2018-03-28T13:23:25.163Z,2.65
2018-03-28T13:27:01.452Z,3.27
2018-03-28T13:29:29.363Z,3.60
2018-03-28T13:31:57.493Z,3.53
2018-03-28T13:34:25.445Z,9.63
2018-03-28T13:36:53.162Z,4.43
2018-03-28T13:39:20.740Z,3.73
2018-03-28T13:41:49.256Z,7.60
2018-03-28T13:44:23.239Z,4.85
2018-03-28T13:46:51.689Z,4.40
2018-03-28T13:49:19.468Z,4.37
2018-03-28T13:51:50.425Z,4.77
2018-03-28T13:56:52.833Z,4.63
2018-03-28T13:59:23.414Z,4.82
2018-03-28T14:01:53.028Z,9.07
2018-03-28T14:04:20.596Z,5.40
2018-03-28T14:06:48.250Z,4.57
2018-03-28T14:09:16.834Z,5.53
2018-03-28T14:11:44.491Z,5.43
2018-03-28T14:14:13.751Z,4.93
2018-03-28T14:16:41.363Z,5.95
2018-03-28T14:19:12.483Z,5.30
2018-03-28T14:21:40.170Z,5.10
2018-03-28T14:24:07.756Z,9.60
2018-03-28T14:26:38.280Z,5.53
2018-03-28T14:29:06.084Z,4.80
2018-03-28T14:34:12.344Z,6.53
2018-03-28T14:36:39.964Z,9.53
2018-03-28T14:39:07.518Z,5.05
2018-03-28T14:41:35.127Z,4.97
2018-03-28T14:44:02.720Z,5.80
2018-03-28T14:46:30.258Z,4.30
2018-03-28T14:48:58.054Z,5.30
2018-03-28T14:51:25.937Z,4.90
2018-03-28T14:53:53.480Z,7.60
2018-03-28T14:56:21.026Z,5.40
2018-03-28T14:58:48.612Z,15.77
2018-03-28T15:01:16.616Z,6.27
2018-03-28T15:03:44.160Z,5.80
2018-03-28T15:06:11.785Z,5.97
2018-03-28T15:08:39.343Z,6.70
2018-03-28T15:11:06.890Z,5.63
2018-03-28T15:13:35.317Z,5.60
2018-03-28T15:16:06.090Z,6.80
2018-03-28T15:18:33.781Z,6.55
2018-03-28T15:21:01.367Z,5.40
2018-03-28T15:23:28.904Z,5.67
2018-03-28T15:25:56.444Z,8.83
2018-03-28T15:28:24.039Z,6.73
2018-03-28T15:30:51.605Z,6.60
2018-03-28T15:33:19.192Z,9.20
2018-03-28T15:35:51.254Z,6.30
2018-03-28T15:38:19.211Z,9.80
2018-03-28T15:40:46.750Z,7.10
2018-03-28T15:43:16.452Z,6.90
2018-03-28T15:45:44.012Z,9.30
2018-03-28T15:48:11.563Z,8.20
2018-03-28T15:50:39.144Z,8.03
2018-03-28T15:53:06.708Z,8.57
2018-03-28T15:55:34.248Z,9.20
2018-03-28T15:58:02.364Z,11.43
2018-03-28T16:00:31.104Z,10.37
2018-03-28T16:02:59.125Z,12.07
2018-03-28T16:05:26.723Z,13.90
2018-03-28T16:07:56.305Z,16.47
2018-03-28T16:10:23.854Z,17.70
2018-03-28T16:12:51.445Z,15.77
2018-03-28T16:15:19.778Z,18.10
2018-03-28T16:17:47.351Z,11.50
2018-03-28T16:20:18.079Z,12.00
2018-03-28T16:22:45.621Z,9.87
2018-03-28T16:25:25.117Z,11.57
2018-03-28T16:30:22.087Z,11.10
2018-03-28T16:32:50.425Z,16.40
2018-03-28T16:35:18.899Z,12.77
2018-03-28T16:37:47.133Z,12.80
2018-03-28T16:40:16.443Z,19.85
2018-03-28T16:42:44.009Z,17.60
2018-03-28T16:45:11.554Z,15.70
2018-03-28T16:47:39.158Z,15.27
2018-03-28T16:50:06.698Z,12.83
2018-03-28T16:52:34.267Z,23.37
2018-03-28T16:55:01.852Z,13.43
2018-03-28T16:57:29.406Z,9.27
2018-03-28T16:59:56.954Z,12.73
2018-03-28T17:02:24.904Z,11.23
2018-03-28T17:04:52.515Z,9.20
2018-03-28T17:07:20.908Z,7.37
2018-03-28T17:09:48.461Z,7.67
2018-03-28T17:12:16.416Z,7.63
2018-03-28T17:14:43.997Z,9.67
2018-03-28T17:17:11.569Z,11.88
2018-03-28T17:19:39.125Z,13.63
2018-03-28T17:22:07.446Z,15.43
2018-03-28T17:24:35.552Z,11.70
2018-03-28T17:27:03.246Z,16.40
2018-03-28T17:29:30.892Z,19.80
2018-03-28T17:31:58.561Z,12.00
2018-03-28T17:34:26.170Z,9.20
2018-03-28T17:36:53.717Z,13.13
2018-03-28T17:39:22.822Z,12.50
2018-03-28T17:41:50.400Z,9.93
2018-03-28T17:44:17.945Z,11.70
2018-03-28T17:46:45.892Z,8.85
2018-03-28T17:49:25.385Z,7.72
2018-03-28T17:58:38.039Z,12.63
2018-03-28T18:01:06.708Z,6.83
2018-03-28T18:03:34.272Z,6.47
2018-03-28T18:06:01.972Z,10.17
2018-03-28T18:08:29.691Z,10.90
2018-03-28T18:10:57.372Z,15.17
2018-03-28T18:13:24.974Z,8.27
2018-03-28T18:15:53.285Z,8.23
2018-03-28T18:18:21.455Z,6.82
2018-03-28T18:20:49.033Z,7.03
2018-03-28T18:23:16.568Z,6.80
2018-03-28T18:25:46.184Z,10.13
2018-03-28T18:28:16.367Z,6.85
2018-03-28T18:30:43.914Z,8.90
2018-03-28T18:33:11.494Z,8.45
2018-03-28T18:35:40.074Z,10.00
2018-03-28T18:38:08.275Z,8.27
2018-03-28T18:40:36.626Z,5.77
2018-03-28T18:43:04.287Z,9.23
2018-03-28T18:45:31.935Z,8.00
2018-03-28T18:47:59.476Z,6.85
2018-03-28T18:50:27.887Z,6.13
2018-03-28T18:52:56.723Z,6.60
2018-03-28T18:55:24.279Z,4.83
2018-03-28T18:57:51.910Z,11.63
2018-03-28T19:00:19.607Z,6.56
2018-03-28T19:02:47.264Z,9.13
2018-03-28T19:05:16.128Z,4.10
2018-03-28T19:07:43.759Z,4.37
2018-03-28T19:10:11.324Z,3.60
2018-03-28T19:12:38.937Z,5.93
2018-03-28T19:15:06.570Z,4.35
2018-03-28T19:17:34.876Z,3.70
2018-03-28T19:20:03.220Z,4.00
2018-03-28T19:22:30.793Z,4.28
2018-03-28T19:24:58.341Z,3.77
2018-03-28T19:27:27.099Z,4.63
2018-03-28T19:29:54.655Z,5.73
2018-03-28T19:32:22.947Z,6.93
2018-03-28T19:34:50.700Z,5.30
2018-03-28T19:37:18.232Z,5.30
2018-03-28T19:39:45.767Z,5.43
2018-03-28T19:42:25.684Z,3.85
2018-03-28T19:48:45.655Z,4.30
2018-03-28T19:51:15.316Z,5.57
2018-03-28T19:53:43.507Z,4.50
2018-03-28T19:56:11.976Z,4.00
2018-03-28T19:58:40.321Z,5.37
2018-03-28T20:01:10.409Z,5.37
2018-03-28T20:03:38.810Z,4.40
2018-03-28T20:06:08.377Z,4.00
2018-03-28T20:08:35.960Z,5.30
2018-03-28T20:11:03.544Z,5.90
2018-03-28T20:13:31.117Z,6.57
2018-03-28T20:15:59.432Z,4.47
2018-03-28T20:18:27.327Z,5.57
2018-03-28T20:20:54.852Z,5.70
2018-03-28T20:23:22.452Z,4.12
2018-03-28T20:25:50.086Z,3.60
2018-03-28T20:28:17.682Z,7.10
2018-03-28T20:30:45.220Z,6.43
2018-03-28T20:33:14.510Z,4.80
2018-03-28T20:35:42.064Z,4.63
2018-03-28T20:38:09.647Z,4.70
2018-03-28T20:40:37.780Z,6.90
2018-03-28T20:43:06.827Z,6.00
2018-03-28T20:45:34.368Z,6.83
2018-03-28T20:48:02.033Z,6.70
2018-03-28T20:50:29.572Z,6.72
2018-03-28T20:52:57.100Z,7.83
2018-03-28T20:55:24.655Z,6.03
2018-03-28T20:57:52.293Z,6.27
2018-03-28T21:00:19.848Z,7.53
2018-03-28T21:02:47.455Z,6.63
2018-03-28T21:05:16.624Z,4.22
2018-03-28T21:07:44.232Z,7.90
2018-03-28T21:10:12.120Z,6.73
2018-03-28T21:12:39.660Z,6.30
2018-03-28T21:15:07.220Z,5.97
2018-03-28T21:17:34.890Z,5.57
2018-03-28T21:20:02.468Z,5.18
2018-03-28T21:22:30.122Z,4.60
2018-03-28T21:24:58.488Z,4.73
2018-03-28T21:27:26.102Z,7.97
2018-03-28T21:29:53.751Z,4.20
2018-03-28T21:32:21.348Z,3.90
2018-03-28T21:34:48.889Z,4.00
2018-03-28T21:37:16.430Z,3.60
2018-03-28T21:39:43.983Z,4.90
2018-03-28T21:42:11.527Z,3.80
2018-03-28T21:44:39.565Z,3.60
2018-03-28T21:47:07.716Z,3.73
2018-03-28T21:49:35.256Z,3.17
2018-03-28T21:52:02.788Z,2.70
2018-03-28T21:54:30.352Z,2.75
2018-03-28T21:56:57.948Z,2.90
2018-03-28T21:59:25.553Z,3.50
2018-03-28T22:01:53.151Z,3.30
2018-03-28T22:04:20.685Z,3.80
2018-03-28T22:06:48.249Z,3.73
2018-03-28T22:09:16.676Z,3.10
2018-03-28T22:11:44.210Z,3.50
2018-03-28T22:14:11.740Z,3.23
2018-03-28T22:16:39.300Z,3.30
2018-03-28T22:19:06.835Z,3.03
2018-03-28T22:21:34.372Z,5.57
2018-03-28T22:24:01.930Z,3.63
2018-03-28T22:26:29.500Z,3.62
2018-03-28T22:28:57.806Z,3.80
2018-03-28T22:31:25.851Z,3.70
2018-03-28T22:33:53.453Z,3.37
2018-03-28T22:36:20.983Z,3.83
2018-03-28T22:38:48.555Z,4.45
2018-03-28T22:41:16.469Z,4.30
2018-03-28T22:43:44.003Z,3.93
2018-03-28T22:46:12.272Z,5.47
2018-03-28T22:48:39.872Z,3.80
2018-03-28T22:51:07.407Z,3.60
2018-03-28T22:53:35.563Z,3.90
2018-03-28T22:56:03.090Z,4.80
2018-03-28T22:58:30.620Z,4.27
2018-03-28T23:00:58.183Z,3.40
2018-03-28T23:03:25.744Z,3.67
2018-03-28T23:05:53.276Z,4.03
2018-03-28T23:08:20.895Z,3.44
2018-03-28T23:10:49.205Z,2.70
2018-03-28T23:13:16.736Z,2.53
2018-03-28T23:15:45.788Z,2.37
2018-03-28T23:18:23.564Z,2.42
2018-03-28T23:25:22.455Z,2.87
2018-03-28T23:27:49.987Z,2.17
2018-03-28T23:30:17.523Z,2.00
2018-03-28T23:32:45.709Z,1.93
2018-03-28T23:35:15.473Z,2.08
2018-03-28T23:37:43.007Z,4.03
2018-03-28T23:40:11.334Z,1.65
2018-03-28T23:42:38.936Z,1.73
2018-03-28T23:45:06.564Z,1.10
2018-03-28T23:47:34.128Z,1.80
2018-03-28T23:50:01.673Z,1.00
2018-03-28T23:52:29.248Z,1.10
2018-03-28T23:54:57.143Z,1.00
2018-03-28T23:57:24.692Z,1.20
2018-03-28T23:59:52.223Z,1.03
